Time;durP1;ratioP1;P1;durP2;ratioP2;P2;SDS_P1;SDS_P2;PMS_P1;PMS_P2;Temp;Humidity;BMP_temperature;BMP_pressure;BME280_temperature;BME280_humidity;BME280_pressure;Samples;Min_cycle;Max_cycle;Signal;HPM_P1;HPM_P2
2022/08/31 00:05:17;;;;;;;3.33;1.47;;;;;;;15.07;85.03;101121.01;3428333;84;66862;-87
2022/08/31 00:10:20;;;;;;;4.78;1.37;;;;;;;15.03;85.15;101125.73;3420479;83;98686;-87
2022/08/31 00:15:24;;;;;;;4.10;1.42;;;;;;;14.93;85.38;101136.98;3427641;84;35380;-87
2022/08/31 00:20:27;;;;;;;4.45;1.77;;;;;;;14.88;85.40;101137.97;3386630;84;98837;-87
2022/08/31 00:25:29;;;;;;;5.40;1.60;;;;;;;14.87;85.87;101140.55;3390061;86;35405;-87
2022/08/31 00:30:30;;;;;;;6.62;1.72;;;;;;;14.83;86.16;101127.25;3372080;85;98647;-87
2022/08/31 00:35:40;;;;;;;6.25;1.60;;;;;;;14.83;86.40;101127.25;3394781;85;34865;-87
2022/08/31 00:40:38;;;;;;;5.33;1.83;;;;;;;14.84;86.58;101128.84;3362874;85;98304;-87
2022/08/31 00:45:39;;;;;;;4.67;1.50;;;;;;;14.72;86.65;101109.78;3386347;86;34893;-87
2022/08/31 00:50:40;;;;;;;2.53;1.20;;;;;;;14.81;86.91;101130.98;3384291;86;98533;-86
2022/08/31 00:55:41;;;;;;;2.77;1.43;;;;;;;14.78;86.82;101136.70;3379866;85;31060;-86
2022/08/31 01:00:43;;;;;;;4.85;1.55;;;;;;;14.78;87.13;101129.00;3388455;86;98571;-87
2022/08/31 01:05:45;;;;;;;3.67;1.47;;;;;;;14.78;87.27;101133.16;3387948;86;33834;-86
2022/08/31 01:10:46;;;;;;;3.85;1.80;;;;;;;14.76;87.28;101126.61;3363338;85;98709;-86
2022/08/31 01:15:52;;;;;;;3.70;1.60;;;;;;;14.77;87.38;101130.97;3375608;85;31651;-86
2022/08/31 01:21:21;;;;;;;4.53;1.70;;;;;;;14.77;87.47;101130.19;3382762;85;98473;-86
2022/08/31 01:26:26;;;;;;;5.05;1.62;;;;;;;14.74;87.43;101130.38;3360813;85;111677;-87
2022/08/31 01:31:43;;;;;;;5.53;1.75;;;;;;;14.70;87.54;101128.75;3389356;85;35536;-86
2022/08/31 01:36:46;;;;;;;9.25;2.20;;;;;;;14.65;87.69;101127.15;3367855;85;98752;-86
2022/08/31 01:41:48;;;;;;;4.15;1.77;;;;;;;14.60;87.79;101127.52;3382697;85;35263;-86
2022/08/31 01:46:50;;;;;;;4.27;1.70;;;;;;;14.44;87.92;101109.62;3363696;85;98850;-87
2022/08/31 01:51:53;;;;;;;4.03;1.80;;;;;;;14.55;88.04;101131.25;3389508;85;35435;-85
2022/08/31 01:56:55;;;;;;;5.60;2.00;;;;;;;14.50;88.00;101127.47;3372068;85;98907;-86
2022/08/31 02:01:56;;;;;;;3.90;1.65;;;;;;;14.36;88.34;101132.31;3370268;86;36067;-86
2022/08/31 02:07:00;;;;;;;5.50;1.63;;;;;;;14.36;88.34;101132.31;3381269;85;98560;-86
2022/08/31 02:12:02;;;;;;;4.28;2.00;;;;;;;14.32;88.51;101137.61;3383839;85;39546;-87
2022/08/31 02:17:03;;;;;;;6.43;1.87;;;;;;;14.27;88.90;101136.58;3375040;85;98757;-87
2022/08/31 02:22:04;;;;;;;4.30;1.85;;;;;;;14.27;89.01;101136.58;3391056;86;51821;-87
2022/08/31 02:27:06;;;;;;;4.73;2.07;;;;;;;14.26;89.20;101134.42;3395732;84;98921;-86
2022/08/31 02:32:07;;;;;;;5.03;1.97;;;;;;;14.24;89.25;101142.33;3393637;86;91862;-87
2022/08/31 02:37:08;;;;;;;7.97;2.03;;;;;;;14.22;89.36;101137.73;3383115;85;98832;-86
2022/08/31 02:42:09;;;;;;;7.53;2.10;;;;;;;14.21;89.51;101136.16;3399245;85;30079;-86
2022/08/31 02:47:10;;;;;;;4.60;2.53;;;;;;;14.19;89.58;101134.92;3390513;85;98730;-85
2022/08/31 02:52:11;;;;;;;5.50;2.00;;;;;;;14.16;89.57;101127.37;3393446;86;33154;-86
2022/08/31 02:57:12;;;;;;;3.90;1.87;;;;;;;14.08;89.55;101121.00;3396075;85;98959;-86
2022/08/31 03:02:14;;;;;;;5.47;2.25;;;;;;;14.03;89.71;101121.94;3396280;86;29184;-87
2022/08/31 03:07:15;;;;;;;4.47;2.20;;;;;;;13.99;89.52;101129.41;3392021;85;98890;-86
2022/08/31 03:12:16;;;;;;;6.67;2.30;;;;;;;13.94;89.60;101133.91;3395450;84;39970;-87
2022/08/31 03:17:17;;;;;;;5.07;1.97;;;;;;;13.89;89.93;101134.29;3376444;85;99016;-86
2022/08/31 03:22:18;;;;;;;6.27;2.40;;;;;;;13.83;89.82;101128.87;3397343;84;32223;-86
2022/08/31 03:27:20;;;;;;;5.57;2.30;;;;;;;13.78;90.09;101125.06;3396198;84;98315;-86
2022/08/31 03:32:21;;;;;;;4.73;2.23;;;;;;;13.76;90.27;101131.58;3416715;85;33329;-87
2022/08/31 03:37:22;;;;;;;5.10;1.97;;;;;;;13.74;90.36;101126.42;3414683;84;98704;-87
2022/08/31 03:42:24;;;;;;;7.33;2.10;;;;;;;13.70;90.27;101128.38;3424444;83;50751;-86
2022/08/31 03:47:26;;;;;;;5.10;2.17;;;;;;;13.68;90.46;101134.86;3391700;84;98692;-86
2022/08/31 03:52:27;;;;;;;4.94;1.84;;;;;;;13.64;90.57;101129.91;3424917;84;28131;-87
2022/08/31 03:57:29;;;;;;;6.53;2.43;;;;;;;13.61;90.69;101138.14;3419539;85;98743;-86
2022/08/31 04:02:30;;;;;;;5.57;2.47;;;;;;;13.54;90.36;101143.03;3429883;83;26606;-87
2022/08/31 04:07:31;;;;;;;5.57;2.40;;;;;;;13.45;90.58;101143.91;3418352;84;98543;-87
2022/08/31 04:12:33;;;;;;;6.42;3.60;;;;;;;13.41;91.00;101135.39;3410270;84;89953;-86
2022/08/31 04:17:34;;;;;;;4.15;2.00;;;;;;;13.41;91.13;101142.30;3430871;83;98785;-85
2022/08/31 04:22:36;;;;;;;6.53;2.27;;;;;;;13.39;91.37;101150.16;3430482;85;27156;-87
2022/08/31 04:27:37;;;;;;;4.93;2.10;;;;;;;13.36;91.35;101153.70;3423047;84;98836;-87
2022/08/31 04:32:38;;;;;;;5.97;2.73;;;;;;;13.32;91.47;101162.52;3434937;83;33193;-86
2022/08/31 04:37:44;;;;;;;7.70;2.63;;;;;;;13.27;91.57;101156.76;3402872;85;98633;-87
2022/08/31 04:42:42;;;;;;;6.85;2.58;;;;;;;13.25;91.69;101153.55;3432468;84;29698;-86
2022/08/31 04:47:44;;;;;;;5.33;2.30;;;;;;;13.24;92.09;101158.10;3424440;85;98816;-87
2022/08/31 04:52:47;;;;;;;7.77;2.60;;;;;;;13.19;92.08;101154.29;3433071;85;28796;-86
2022/08/31 04:57:48;;;;;;;7.33;2.40;;;;;;;13.18;92.25;101156.81;3415029;84;98916;-87
2022/08/31 05:02:49;;;;;;;5.60;2.73;;;;;;;13.16;92.42;101157.22;3428303;84;29697;-88
2022/08/31 05:07:50;;;;;;;5.30;2.57;;;;;;;13.15;92.53;101157.02;3418947;84;98778;-87
2022/08/31 05:12:52;;;;;;;5.20;2.50;;;;;;;13.15;92.82;101160.35;3434214;83;29157;-86
2022/08/31 05:17:53;;;;;;;4.90;2.40;;;;;;;13.14;92.97;101156.78;3416422;84;98837;-86
2022/08/31 05:22:54;;;;;;;8.98;2.75;;;;;;;13.17;93.28;101162.95;3415299;85;30092;-86
2022/08/31 05:27:55;;;;;;;6.83;2.57;;;;;;;13.17;93.48;101156.04;3415645;85;98564;-86
2022/08/31 05:32:56;;;;;;;5.30;2.63;;;;;;;13.21;94.13;101166.56;3419852;84;28243;-87
2022/08/31 05:37:57;;;;;;;8.30;2.80;;;;;;;13.23;94.15;101170.30;3413069;84;98906;-85
2022/08/31 05:42:58;;;;;;;7.27;2.97;;;;;;;13.28;94.43;101173.55;3420398;84;25880;-86
2022/08/31 05:47:59;;;;;;;7.20;3.60;;;;;;;13.36;94.92;101172.44;3410168;84;98846;-86
2022/08/31 05:53:02;;;;;;;4.87;2.47;;;;;;;13.54;95.93;101170.69;3434893;84;32567;-86
2022/08/31 05:58:04;;;;;;;5.83;2.53;;;;;;;13.77;96.16;101175.47;3422819;85;98728;-86
2022/08/31 06:03:05;;;;;;;3.87;2.07;;;;;;;14.01;96.48;101174.12;3425294;84;28145;-86
2022/08/31 06:08:06;;;;;;;5.10;2.17;;;;;;;14.20;96.44;101180.83;3418421;84;98810;-86
2022/08/31 06:13:08;;;;;;;5.77;3.27;;;;;;;14.40;96.33;101187.12;3423706;84;30790;-87
2022/08/31 06:18:10;;;;;;;5.97;2.27;;;;;;;14.57;96.27;101198.14;3418364;84;98778;-86
2022/08/31 06:23:11;;;;;;;3.53;1.80;;;;;;;14.71;96.40;101198.25;3383380;86;32292;-86
2022/08/31 06:28:14;;;;;;;6.13;1.93;;;;;;;14.85;96.76;101204.67;3389117;85;98873;-86
2022/08/31 06:33:15;;;;;;;7.17;2.20;;;;;;;15.01;96.40;101208.52;3398404;86;34951;-87
2022/08/31 06:38:16;;;;;;;7.03;1.90;;;;;;;15.16;96.34;101204.64;3393371;85;98565;-86
2022/08/31 06:43:17;;;;;;;8.33;3.00;;;;;;;15.34;96.30;101220.20;3380961;86;31087;-85
2022/08/31 06:48:18;;;;;;;3.70;1.60;;;;;;;15.50;95.84;101216.50;3385822;85;98620;-86
2022/08/31 06:53:19;;;;;;;8.10;1.67;;;;;;;15.61;95.23;101215.95;3373315;85;106426;-87
2022/08/31 06:58:20;;;;;;;5.87;1.70;;;;;;;15.74;94.85;101221.91;3391648;85;98954;-88
2022/08/31 07:03:22;;;;;;;4.93;1.87;;;;;;;15.88;94.55;101228.31;3396066;85;29232;-87
2022/08/31 07:08:23;;;;;;;7.60;2.83;;;;;;;16.07;94.42;101225.16;3392064;84;98589;-87
2022/08/31 07:13:24;;;;;;;3.80;1.63;;;;;;;16.36;94.16;101228.77;3400371;86;28124;-87
2022/08/31 07:18:25;;;;;;;8.20;2.15;;;;;;;16.66;94.10;101233.34;3390256;85;98774;-85
2022/08/31 07:23:26;;;;;;;3.40;1.50;;;;;;;17.00;93.72;101231.72;3397971;85;29198;-86
2022/08/31 07:28:28;;;;;;;3.37;1.20;;;;;;;17.37;92.89;101225.83;3395331;85;98836;-86
2022/08/31 07:33:36;;;;;;;3.62;1.30;;;;;;;17.70;92.26;101237.03;3401540;85;30077;-86
2022/08/31 07:43:56;;;;;;;4.50;1.40;;;;;;;18.20;89.63;101230.76;3400854;84;42089;-87
2022/08/31 07:48:58;;;;;;;5.50;1.42;;;;;;;18.50;87.51;101239.91;3391659;85;98722;-86
2022/08/31 07:53:59;;;;;;;4.03;1.30;;;;;;;18.65;87.34;101249.75;3396122;85;34868;-87
2022/08/31 07:59:02;;;;;;;2.98;1.30;;;;;;;18.84;86.97;101250.56;3388645;86;98324;-88
2022/08/31 08:04:05;;;;;;;3.62;1.40;;;;;;;18.89;83.75;101258.48;3414640;85;35469;-85
2022/08/31 08:09:06;;;;;;;4.37;1.45;;;;;;;18.97;83.73;101251.64;3410235;84;98731;-85
2022/08/31 08:14:07;;;;;;;3.37;1.15;;;;;;;19.12;83.36;101260.84;3416533;86;35114;-84
2022/08/31 08:19:08;;;;;;;3.77;1.10;;;;;;;19.34;83.38;101260.83;3407360;84;98923;-84
2022/08/31 08:24:09;;;;;;;4.50;1.20;;;;;;;19.81;83.91;101260.44;3412547;84;34846;-84
2022/08/31 08:29:11;;;;;;;3.70;1.12;;;;;;;20.25;83.01;101256.84;3419090;83;98996;-84
2022/08/31 08:34:12;;;;;;;2.35;1.07;;;;;;;20.61;82.62;101255.05;3421872;84;34518;-84
2022/08/31 08:39:15;;;;;;;3.25;1.15;;;;;;;21.20;82.26;101241.23;3415447;83;99312;-85
2022/08/31 08:44:18;;;;;;;4.12;1.12;;;;;;;21.71;78.17;101240.00;3409684;84;34871;-85
2022/08/31 08:49:40;;;;;;;3.42;1.00;;;;;;;22.34;79.29;101251.16;3365741;85;140945;-86
2022/08/31 08:54:45;;;;;;;1.87;0.80;;;;;;;22.88;74.64;101249.41;3444733;84;34813;-84
2022/08/31 08:59:48;;;;;;;3.90;0.75;;;;;;;23.60;73.14;101247.81;3401377;84;132027;-89
2022/08/31 09:05:09;;;;;;;5.25;1.30;;;;;;;24.49;72.70;101254.50;3457642;84;34881;-86
2022/08/31 09:10:51;;;;;;;3.55;1.22;;;;;;;25.23;70.80;101251.33;3460743;83;98537;-86
2022/08/31 09:16:28;;;;;;;3.70;1.20;;;;;;;26.16;66.52;101251.69;3473967;83;27704;-85
2022/08/31 09:21:40;;;;;;;3.15;0.95;;;;;;;26.83;64.22;101260.39;3468338;83;98396;-86
2022/08/31 09:27:16;;;;;;;4.10;0.95;;;;;;;27.66;64.34;101254.27;3502676;83;26268;-86
2022/08/31 09:32:08;;;;;;;2.65;0.98;;;;;;;28.69;59.46;101242.59;3487863;83;98705;-85
2022/08/31 09:37:27;;;;;;;1.72;0.80;;;;;;;29.57;59.47;101243.03;3483687;83;26718;-86
2022/08/31 09:42:32;;;;;;;4.20;0.95;;;;;;;30.30;56.29;101242.36;3505095;83;26115;-85
2022/08/31 09:47:47;;;;;;;;;;;;;;;31.19;52.89;101237.27;3496758;83;98591;-86
2022/08/31 09:58:13;;;;;;;4.33;1.00;;;;;;;31.33;47.24;101232.93;3481768;83;98847;-86
2022/08/31 10:03:28;;;;;;;2.42;0.80;;;;;;;31.65;46.94;101233.13;3490311;83;26492;-85
2022/08/31 10:08:56;;;;;;;1.98;0.70;;;;;;;31.71;44.63;101238.89;3492205;82;98717;-85
2022/08/31 10:14:03;;;;;;;2.72;0.98;;;;;;;31.63;45.26;101237.13;3498901;82;26471;-87
2022/08/31 10:19:15;;;;;;;2.05;0.70;;;;;;;31.49;44.81;101246.55;3488071;83;98593;-86
2022/08/31 10:24:46;;;;;;;2.85;1.10;;;;;;;31.32;45.28;101234.22;3501389;83;56097;-84
2022/08/31 10:30:09;;;;;;;1.42;0.70;;;;;;;31.35;44.79;101219.63;3492445;83;98650;-82
2022/08/31 10:35:22;;;;;;;3.87;1.47;;;;;;;31.10;44.19;101213.23;3500049;83;25967;-85
2022/08/31 10:40:31;;;;;;;1.45;0.72;;;;;;;31.01;43.33;101216.25;3500435;82;98806;-84
2022/08/31 10:45:37;;;;;;;2.15;0.85;;;;;;;30.44;42.31;101210.92;3496345;83;27039;-85
2022/08/31 10:50:49;;;;;;;2.02;0.78;;;;;;;30.27;40.92;101217.00;3490645;82;98898;-85
2022/08/31 10:56:13;;;;;;;1.63;0.70;;;;;;;30.41;41.52;101211.27;3495637;83;177180;-86
2022/08/31 11:01:25;;;;;;;1.50;0.70;;;;;;;30.74;39.32;101196.13;3495000;83;98517;-84
2022/08/31 11:06:57;;;;;;;1.27;0.60;;;;;;;30.29;38.99;101198.19;3458730;82;25830;-85
2022/08/31 11:12:17;;;;;;;1.17;0.60;;;;;;;30.45;39.45;101204.75;3496412;83;98703;-84
2022/08/31 11:17:50;;;;;;;2.20;0.70;;;;;;;30.06;37.76;101203.98;3490958;82;34870;-84
2022/08/31 11:23:33;;;;;;;2.08;0.85;;;;;;;29.57;40.26;101204.73;3458685;83;26265;-85
2022/08/31 11:28:47;;;;;;;2.40;1.10;;;;;;;29.87;41.22;101196.33;3486084;84;98800;-84
2022/08/31 11:33:55;;;;;;;2.30;0.80;;;;;;;29.43;41.18;101206.12;3502272;83;25841;-84
2022/08/31 11:39:06;;;;;;;2.35;0.82;;;;;;;28.87;40.73;101202.79;3489215;83;98891;-84
2022/08/31 11:44:15;;;;;;;1.82;0.70;;;;;;;28.53;39.91;101197.69;3500012;82;25809;-84
2022/08/31 11:49:37;;;;;;;2.80;0.88;;;;;;;28.44;42.07;101189.89;3480752;83;98545;-85
2022/08/31 11:54:49;;;;;;;1.57;0.80;;;;;;;28.17;41.57;101185.77;3481442;83;27186;-86
2022/08/31 11:59:52;;;;;;;1.57;0.57;;;;;;;28.10;41.25;101173.34;3484335;83;98725;-82
2022/08/31 12:05:01;;;;;;;2.47;0.80;;;;;;;28.34;41.88;101175.59;3430942;84;124035;-84
2022/08/31 12:10:29;;;;;;;1.35;0.50;;;;;;;28.62;41.68;101172.14;3431902;83;99337;-85
2022/08/31 12:15:44;;;;;;;1.60;0.55;;;;;;;28.51;41.23;101174.73;3409417;84;99407;-83
2022/08/31 12:27:22;;;;;;;3.00;1.00;;;;;;;28.60;41.52;101173.89;3485908;82;98992;-84
2022/08/31 12:32:37;;;;;;;3.47;1.00;;;;;;;28.70;41.19;101162.62;3414501;84;98969;-85
2022/08/31 12:37:39;;;;;;;;;;;;;;;29.09;41.75;101152.89;3418245;83;98949;-85
2022/08/31 12:43:03;;;;;;;2.90;0.80;;;;;;;29.48;40.97;101152.95;3482486;82;84996;-86
2022/08/31 12:48:42;;;;;;;3.37;1.00;;;;;;;29.29;40.71;101150.16;3480353;82;98966;-85
2022/08/31 12:53:54;;;;;;;2.83;0.75;;;;;;;29.59;41.63;101141.83;3481130;82;98846;-84
2022/08/31 12:59:34;;;;;;;3.30;0.80;;;;;;;29.79;40.92;101144.72;3467384;82;98832;-84
2022/08/31 13:04:35;;;;;;;3.80;0.98;;;;;;;29.63;39.53;101146.02;3469706;82;98710;-84
2022/08/31 13:09:36;;;;;;;3.25;0.93;;;;;;;29.30;40.05;101141.79;3456421;82;99796;-86
2022/08/31 13:14:43;;;;;;;2.52;1.00;;;;;;;29.38;41.23;101142.98;3407492;82;99006;-84
2022/08/31 13:19:54;;;;;;;1.35;0.62;;;;;;;29.37;39.51;101140.00;3415411;83;99042;-84
2022/08/31 13:25:22;;;;;;;2.25;0.80;;;;;;;29.12;40.04;101137.10;3452839;82;99210;-83
2022/08/31 13:30:22;;;;;;;1.57;0.57;;;;;;;29.02;40.09;101135.63;3419679;83;99074;-84
2022/08/31 13:35:30;;;;;;;2.02;0.53;;;;;;;29.07;39.89;101140.61;3435667;83;98866;-84
2022/08/31 13:40:33;;;;;;;1.62;0.80;;;;;;;28.35;39.60;101110.62;3411105;84;99145;-83
2022/08/31 13:45:39;;;;;;;;;;;;;;;28.35;39.60;101110.62;3447042;83;98886;-84
2022/08/31 13:50:50;;;;;;;3.15;0.90;;;;;;;28.48;39.46;101124.71;3354159;85;84907;-85
2022/08/31 13:55:51;;;;;;;3.45;1.10;;;;;;;28.32;40.45;101129.35;3282149;87;99033;-84
2022/08/31 14:00:57;;;;;;;2.67;0.90;;;;;;;28.31;41.03;101131.24;3326596;86;98923;-85
2022/08/31 14:06:15;;;;;;;2.52;0.65;;;;;;;28.16;41.25;101123.34;3315940;85;99427;-84
2022/08/31 14:11:17;;;;;;;2.33;0.68;;;;;;;27.88;40.92;101116.23;3335322;86;99034;-83
2022/08/31 14:16:33;;;;;;;2.67;0.77;;;;;;;27.67;40.89;101110.19;3339802;86;99313;-84
2022/08/31 14:21:37;;;;;;;;;;;;;;;27.37;40.29;101104.16;3370827;84;98860;-84
2022/08/31 14:26:42;;;;;;;1.00;0.65;;;;;;;27.11;40.98;101103.73;3374429;84;85115;-84
2022/08/31 14:31:50;;;;;;;;;;;;;;;26.89;41.45;101105.96;3319642;86;98874;-85
2022/08/31 14:37:05;;;;;;;1.65;0.68;;;;;;;26.62;39.53;101099.52;3340068;86;85303;-85
2022/08/31 14:42:19;;;;;;;2.17;0.70;;;;;;;26.20;41.70;101099.30;3403228;83;98945;-84
2022/08/31 14:47:21;;;;;;;2.23;0.83;;;;;;;26.11;42.72;101106.97;3403582;82;99087;-85
2022/08/31 14:52:26;;;;;;;3.33;0.70;;;;;;;25.95;42.24;101105.83;3407447;84;99051;-85
2022/08/31 14:57:25;;;;;;;1.90;0.72;;;;;;;25.86;42.58;101100.12;3414756;84;98892;-85
2022/08/31 15:02:32;;;;;;;1.07;0.60;;;;;;;25.71;43.00;101100.56;3426772;83;98880;-85
2022/08/31 15:07:37;;;;;;;1.65;0.55;;;;;;;25.60;44.00;101093.92;3412178;83;98689;-84
2022/08/31 15:12:39;;;;;;;2.27;0.78;;;;;;;25.45;44.34;101094.31;3395272;83;99041;-85
2022/08/31 15:17:40;;;;;;;3.20;0.60;;;;;;;25.28;44.67;101087.98;3412891;82;98953;-85
2022/08/31 15:22:41;;;;;;;4.55;1.07;;;;;;;25.09;43.51;101081.42;3410486;84;99427;-84
2022/08/31 15:27:43;;;;;;;1.82;0.70;;;;;;;24.92;44.31;101088.52;3415384;83;98913;-84
2022/08/31 15:32:45;;;;;;;2.98;0.70;;;;;;;24.70;42.69;101079.89;3435475;83;98682;-85
2022/08/31 15:37:57;;;;;;;1.10;0.50;;;;;;;24.43;44.88;101086.06;3453411;82;98820;-85
2022/08/31 15:43:00;;;;;;;1.77;0.82;;;;;;;24.37;45.33;101079.44;3411364;83;98616;-85
2022/08/31 15:53:26;;;;;;;2.90;0.87;;;;;;;23.81;44.25;101082.72;3427997;83;99018;-83
2022/08/31 15:58:30;;;;;;;4.20;0.90;;;;;;;23.59;44.11;101080.43;3384930;83;99448;-85
2022/08/31 16:03:28;;;;;;;2.12;0.70;;;;;;;23.37;43.77;101075.95;3408828;83;98888;-84
2022/08/31 16:08:29;;;;;;;2.27;0.65;;;;;;;23.08;43.87;101077.39;3409176;83;101629;-85
2022/08/31 16:13:30;;;;;;;2.05;0.70;;;;;;;22.97;44.86;101077.52;3425535;83;99219;-84
2022/08/31 16:18:31;;;;;;;2.02;0.72;;;;;;;22.82;45.14;101073.53;3454090;83;99136;-84
2022/08/31 16:23:34;;;;;;;2.60;0.90;;;;;;;22.69;45.23;101074.92;3415855;83;98774;-85
2022/08/31 16:28:35;;;;;;;2.83;0.80;;;;;;;22.67;46.23;101068.18;3414473;83;98898;-84
2022/08/31 16:33:39;;;;;;;2.98;0.70;;;;;;;22.62;46.99;101068.72;3412796;83;98909;-84
2022/08/31 16:38:40;;;;;;;5.17;0.72;;;;;;;22.60;47.50;101067.75;3440251;84;98936;-84
2022/08/31 16:43:41;;;;;;;3.10;0.80;;;;;;;22.51;47.32;101057.77;3434339;84;99025;-83
2022/08/31 16:54:08;;;;;;;4.20;0.90;;;;;;;22.36;47.79;101060.79;3418889;83;98989;-84
2022/08/31 16:59:11;;;;;;;3.12;1.20;;;;;;;22.15;47.09;101066.16;3440939;83;98925;-85
2022/08/31 17:04:17;;;;;;;3.00;1.07;;;;;;;21.84;47.94;101068.55;3420957;83;99039;-81
2022/08/31 17:09:23;;;;;;;6.22;1.87;;;;;;;21.58;49.19;101074.37;3418734;83;99154;-84
2022/08/31 17:14:34;;;;;;;3.00;0.88;;;;;;;21.42;49.78;101077.92;3431197;82;98999;-84
2022/08/31 17:19:38;;;;;;;3.95;0.80;;;;;;;21.27;50.26;101082.29;3436713;83;98963;-84
2022/08/31 17:24:44;;;;;;;2.42;0.98;;;;;;;21.11;50.69;101082.84;3403984;83;99091;-85
2022/08/31 17:29:49;;;;;;;3.65;1.02;;;;;;;21.08;51.45;101084.49;3386514;83;99107;-83
2022/08/31 17:34:53;;;;;;;2.05;0.98;;;;;;;20.96;51.77;101093.55;3390886;84;99463;-83
2022/08/31 17:39:55;;;;;;;2.83;1.05;;;;;;;20.85;52.45;101092.15;3407104;83;99057;-83
2022/08/31 17:44:56;;;;;;;3.60;1.22;;;;;;;20.75;52.96;101094.55;3411070;83;98891;-83
2022/08/31 17:49:58;;;;;;;3.05;1.15;;;;;;;20.59;53.21;101098.69;3415699;83;98959;-85
2022/08/31 17:55:00;;;;;;;5.00;1.22;;;;;;;20.48;54.11;101096.70;3424387;82;98776;-84
2022/08/31 18:00:03;;;;;;;4.35;1.40;;;;;;;20.36;54.67;101102.89;3405259;82;99288;-85
2022/08/31 18:05:06;;;;;;;2.27;1.10;;;;;;;20.22;55.27;101108.75;3368167;84;98963;-85
2022/08/31 18:10:08;;;;;;;4.17;1.00;;;;;;;20.08;56.02;101114.56;3414320;83;99015;-83
2022/08/31 18:15:13;;;;;;;8.10;1.00;;;;;;;19.92;56.84;101108.81;3375162;84;98540;-86
2022/08/31 18:20:14;;;;;;;4.20;0.90;;;;;;;19.77;57.14;101121.42;3370744;84;98869;-84
2022/08/31 18:25:15;;;;;;;3.15;1.10;;;;;;;19.60;57.75;101123.88;3362922;83;99013;-83
2022/08/31 18:30:17;;;;;;;2.95;1.20;;;;;;;19.45;58.25;101125.31;3408024;83;98889;-85
2022/08/31 18:35:18;;;;;;;6.83;1.65;;;;;;;19.30;59.10;101122.52;3417319;83;99205;-86
2022/08/31 18:45:38;;;;;;;4.55;1.65;;;;;;;19.01;59.99;101127.63;3377101;83;99125;-87
2022/08/31 18:50:46;;;;;;;4.72;1.30;;;;;;;18.83;60.69;101126.25;3409534;83;98870;-86
2022/08/31 18:55:47;;;;;;;4.22;1.72;;;;;;;18.67;61.07;101131.02;3379500;83;99385;-86
2022/08/31 19:00:58;;;;;;;6.35;1.27;;;;;;;18.53;61.67;101131.16;3439775;83;98892;-85
2022/08/31 19:05:59;;;;;;;5.35;1.42;;;;;;;18.37;62.16;101135.09;3373580;84;98704;-85
2022/08/31 19:11:00;;;;;;;4.55;1.20;;;;;;;18.22;62.72;101136.42;3408743;83;99008;-86
2022/08/31 19:16:02;;;;;;;3.83;1.40;;;;;;;18.09;63.26;101138.72;3420911;83;98944;-86
2022/08/31 19:21:25;;;;;;;8.00;1.50;;;;;;;17.94;64.03;101142.20;3413949;83;99338;-87
2022/08/31 19:26:42;;;;;;;5.05;1.52;;;;;;;17.84;64.39;101146.47;3381329;83;98993;-87
2022/08/31 19:31:47;;;;;;;6.20;1.60;;;;;;;17.68;64.52;101141.41;3424484;83;98832;-87
2022/08/31 19:36:50;;;;;;;5.37;1.72;;;;;;;17.59;65.27;101151.39;3416125;82;98847;-87
2022/08/31 19:41:55;;;;;;;4.50;1.25;;;;;;;17.49;65.74;101145.31;3381629;84;98711;-87
2022/08/31 19:46:58;;;;;;;3.07;1.37;;;;;;;17.38;66.35;101150.91;3434962;82;98803;-86
2022/08/31 19:52:04;;;;;;;4.90;1.80;;;;;;;17.23;65.96;101160.48;3425485;82;99120;-86
2022/08/31 19:57:08;;;;;;;6.62;1.70;;;;;;;17.04;66.69;101155.41;3462295;83;98844;-85
2022/08/31 20:02:10;;;;;;;3.62;1.35;;;;;;;16.63;67.15;101125.75;3457245;83;98810;-87
2022/08/31 20:07:13;;;;;;;4.37;1.50;;;;;;;16.73;67.59;101152.13;3464954;83;98587;-83
2022/08/31 20:12:16;;;;;;;4.53;1.40;;;;;;;16.65;67.85;101156.71;3445402;83;98950;-85
2022/08/31 20:17:19;;;;;;;4.25;1.22;;;;;;;16.56;68.10;101148.79;3437051;83;98929;-86
2022/08/31 20:22:21;;;;;;;7.55;1.87;;;;;;;16.48;68.42;101151.40;3455574;83;99453;-86
2022/08/31 20:27:22;;;;;;;2.20;1.00;;;;;;;16.40;68.39;101169.25;3394055;83;99131;-87
2022/08/31 20:32:24;;;;;;;7.43;1.40;;;;;;;16.29;69.15;101159.33;3354374;83;98953;-86
2022/08/31 20:37:25;;;;;;;5.37;1.75;;;;;;;16.22;69.31;101165.66;3353524;84;98823;-86
2022/08/31 20:42:26;;;;;;;5.10;1.70;;;;;;;16.16;69.87;101174.78;3336149;85;99146;-88
2022/08/31 20:52:47;;;;;;;2.72;1.10;;;;;;;15.99;70.20;101183.90;3345055;84;98643;-87
2022/08/31 20:57:49;;;;;;;3.10;1.23;;;;;;;15.85;70.54;101184.67;3353460;84;98865;-86
2022/08/31 21:02:51;;;;;;;6.12;1.50;;;;;;;15.73;71.25;101183.66;3280886;86;98883;-87
2022/08/31 21:07:53;;;;;;;4.08;1.25;;;;;;;15.73;71.25;101183.66;3323099;85;99017;-87
2022/08/31 21:12:59;;;;;;;5.78;1.47;;;;;;;15.68;71.31;101180.47;3294157;86;98975;-87
2022/08/31 21:17:58;;;;;;;6.12;1.75;;;;;;;15.61;71.46;101184.03;3330531;85;98914;-87
2022/08/31 21:22:59;;;;;;;2.45;1.10;;;;;;;15.56;71.49;101191.35;3301420;86;98989;-87
2022/08/31 21:28:00;;;;;;;4.87;1.30;;;;;;;15.47;71.76;101190.92;3364399;83;98823;-88
2022/08/31 21:33:02;;;;;;;3.37;1.22;;;;;;;15.40;72.13;101192.87;3421978;83;99149;-87
2022/08/31 21:38:06;;;;;;;3.80;1.30;;;;;;;15.26;72.47;101188.03;3416710;82;98634;-87
2022/08/31 21:43:06;;;;;;;4.43;1.70;;;;;;;15.26;72.47;101188.03;3396309;83;98631;-87
2022/08/31 21:48:07;;;;;;;3.37;1.42;;;;;;;15.20;72.46;101189.59;3450390;83;98790;-87
2022/08/31 21:53:08;;;;;;;3.90;1.35;;;;;;;15.14;72.78;101189.77;3434882;83;98790;-87
2022/08/31 21:58:09;;;;;;;6.55;1.70;;;;;;;15.10;73.02;101190.94;3428602;83;98874;-88
2022/08/31 22:03:11;;;;;;;5.23;1.60;;;;;;;15.07;73.20;101195.86;3406850;83;98900;-87
2022/08/31 22:08:12;;;;;;;5.57;1.90;;;;;;;15.00;73.27;101191.07;3373699;83;98818;-86
2022/08/31 22:13:15;;;;;;;4.87;1.95;;;;;;;14.97;73.43;101194.64;3430116;83;98707;-87
2022/08/31 22:18:16;;;;;;;5.85;2.25;;;;;;;14.91;73.72;101193.42;3443827;82;98727;-88
2022/08/31 22:23:18;;;;;;;5.35;1.65;;;;;;;14.91;74.01;101191.22;3414906;83;98817;-88
2022/08/31 22:28:19;;;;;;;4.87;1.70;;;;;;;14.87;74.05;101188.44;3432467;82;98950;-87
2022/08/31 22:33:21;;;;;;;4.93;1.57;;;;;;;14.85;74.42;101191.39;3418780;83;99062;-87
2022/08/31 22:38:22;;;;;;;6.47;1.90;;;;;;;14.83;74.43;101191.00;3416687;83;100356;-87
2022/08/31 22:43:23;;;;;;;8.55;2.17;;;;;;;14.80;74.73;101188.41;3397687;84;99216;-87
2022/08/31 22:48:24;;;;;;;5.30;1.50;;;;;;;14.77;75.04;101188.39;3439263;83;98845;-87
2022/08/31 22:53:25;;;;;;;3.85;1.82;;;;;;;14.75;75.14;101181.03;3433262;83;105331;-87
2022/08/31 22:58:26;;;;;;;5.60;1.87;;;;;;;14.71;75.25;101185.17;3397129;85;99308;-86
2022/08/31 23:03:29;;;;;;;5.47;1.83;;;;;;;14.67;75.26;101184.95;3411046;83;101811;-87
2022/08/31 23:08:30;;;;;;;4.93;1.87;;;;;;;14.61;75.36;101187.88;3458099;83;98823;-86
2022/08/31 23:18:56;;;;;;;5.72;2.30;;;;;;;14.50;75.74;101186.41;3405417;84;98532;-87
2022/08/31 23:23:58;;;;;;;4.63;2.00;;;;;;;14.46;76.05;101182.84;3442004;82;98684;-87
2022/08/31 23:29:04;;;;;;;6.80;2.00;;;;;;;14.43;76.30;101182.21;3424858;84;98932;-86
2022/08/31 23:34:10;;;;;;;6.03;2.08;;;;;;;14.39;76.27;101183.38;3399668;84;98918;-88
2022/08/31 23:39:11;;;;;;;7.30;1.70;;;;;;;14.34;76.43;101184.50;3369430;84;98561;-87
2022/08/31 23:44:13;;;;;;;2.85;1.37;;;;;;;14.27;76.63;101186.42;3368160;84;98746;-81
2022/08/31 23:49:18;;;;;;;5.05;1.60;;;;;;;14.21;76.66;101185.99;3391534;84;98784;-87
2022/08/31 23:54:20;;;;;;;3.35;1.67;;;;;;;14.15;76.78;101184.73;3393204;82;99154;-87
2022/08/31 23:59:22;;;;;;;4.58;1.77;;;;;;;14.11;76.97;101181.73;3392370;85;98943;-87
